createdAt,value
2022-10-18T00:01:33.903Z,3.80
2022-10-18T00:04:01.267Z,4.07
2022-10-18T00:06:28.629Z,3.50
2022-10-18T00:08:56.110Z,4.28
2022-10-18T00:11:23.534Z,3.60
2022-10-18T00:13:50.935Z,3.90
2022-10-18T00:16:19.812Z,3.80
2022-10-18T00:18:47.946Z,4.10
2022-10-18T00:21:16.667Z,4.00
2022-10-18T00:23:44.488Z,3.90
2022-10-18T00:26:12.886Z,4.10
2022-10-18T00:28:40.690Z,3.30
2022-10-18T00:31:12.021Z,2.63
2022-10-18T00:33:41.247Z,2.63
2022-10-18T00:36:09.018Z,4.85
2022-10-18T00:38:36.488Z,3.85
2022-10-18T00:41:04.342Z,5.13
2022-10-18T00:43:31.844Z,3.60
2022-10-18T00:45:59.270Z,3.80
2022-10-18T00:48:26.826Z,3.08
2022-10-18T00:50:55.639Z,3.38
2022-10-18T00:53:23.818Z,3.67
2022-10-18T00:55:51.692Z,3.47
2022-10-18T00:58:20.177Z,3.60
2022-10-18T01:00:47.715Z,3.53
2022-10-18T01:03:15.095Z,3.72
2022-10-18T01:05:43.826Z,3.80
2022-10-18T01:08:28.954Z,3.60
2022-10-18T01:11:02.739Z,3.63
2022-10-18T01:13:34.352Z,3.65
2022-10-18T01:16:06.305Z,3.40
2022-10-18T01:18:36.917Z,3.80
2022-10-18T01:21:13.105Z,3.75
2022-10-18T01:23:54.711Z,3.65
2022-10-18T01:26:29.041Z,3.70
2022-10-18T01:29:00.253Z,3.30
2022-10-18T01:31:32.356Z,3.30
2022-10-18T01:36:32.355Z,3.50
2022-10-18T01:39:01.029Z,3.33
2022-10-18T01:41:29.254Z,3.03
2022-10-18T01:43:58.329Z,3.40
2022-10-18T01:46:26.663Z,3.47
2022-10-18T01:48:55.819Z,3.50
2022-10-18T01:51:24.938Z,3.25
2022-10-18T01:53:52.308Z,3.38
2022-10-18T01:56:26.476Z,3.30
2022-10-18T01:59:08.745Z,3.45
2022-10-18T02:01:42.148Z,3.20
2022-10-18T02:04:16.512Z,3.40
2022-10-18T02:06:44.679Z,3.58
2022-10-18T02:09:14.690Z,3.40
2022-10-18T02:11:42.495Z,2.95
2022-10-18T02:14:12.204Z,4.50
2022-10-18T02:16:41.634Z,3.55
2022-10-18T02:19:11.598Z,4.38
2022-10-18T02:21:41.902Z,3.90
2022-10-18T02:24:10.580Z,4.30
2022-10-18T02:26:38.081Z,5.88
2022-10-18T02:29:05.500Z,3.75
2022-10-18T02:31:34.295Z,3.95
2022-10-18T02:34:03.407Z,3.87
2022-10-18T02:36:33.403Z,4.20
2022-10-18T02:39:04.011Z,3.95
2022-10-18T02:41:31.862Z,3.60
2022-10-18T02:43:59.223Z,3.92
2022-10-18T02:48:59.212Z,4.13
2022-10-18T02:51:26.536Z,4.45
2022-10-18T02:53:54.015Z,4.40
2022-10-18T02:56:22.709Z,3.83
2022-10-18T02:58:50.058Z,3.97
2022-10-18T03:01:17.772Z,4.00
2022-10-18T03:03:45.152Z,4.45
2022-10-18T03:06:12.515Z,3.85
2022-10-18T03:08:39.853Z,4.18
2022-10-18T03:11:07.360Z,4.17
2022-10-18T03:13:36.030Z,4.18
2022-10-18T03:16:03.414Z,4.30
2022-10-18T03:18:30.774Z,4.18
2022-10-18T03:20:58.486Z,4.75
2022-10-18T03:23:25.901Z,4.60
2022-10-18T03:25:53.271Z,4.75
2022-10-18T03:28:20.601Z,4.60
2022-10-18T03:30:49.326Z,4.32
2022-10-18T03:33:16.651Z,4.72
2022-10-18T03:35:44.040Z,4.20
2022-10-18T03:38:11.768Z,4.10
2022-10-18T03:40:39.109Z,4.15
2022-10-18T03:43:06.463Z,3.67
2022-10-18T03:45:33.798Z,3.90
2022-10-18T03:48:02.487Z,4.57
2022-10-18T03:50:29.863Z,3.92
2022-10-18T03:52:57.422Z,3.60
2022-10-18T03:55:24.797Z,4.13
2022-10-18T03:57:52.209Z,3.90
2022-10-18T04:00:19.598Z,3.87
2022-10-18T04:02:49.679Z,3.88
2022-10-18T04:05:20.857Z,3.65
2022-10-18T04:07:48.230Z,3.53
2022-10-18T04:10:15.695Z,4.03
2022-10-18T04:12:43.043Z,3.20
2022-10-18T04:15:11.015Z,3.22
2022-10-18T04:17:38.344Z,3.60
2022-10-18T04:20:06.170Z,3.80
2022-10-18T04:22:34.868Z,4.15
2022-10-18T04:25:02.213Z,3.30
2022-10-18T04:27:29.722Z,3.53
2022-10-18T04:29:57.262Z,3.63
2022-10-18T04:32:26.627Z,4.07
2022-10-18T04:34:54.340Z,4.05
2022-10-18T04:37:21.706Z,4.13
2022-10-18T04:39:53.447Z,3.58
2022-10-18T04:42:21.451Z,4.10
2022-10-18T04:44:48.860Z,4.03
2022-10-18T04:47:16.209Z,3.75
2022-10-18T04:49:43.555Z,4.10
2022-10-18T04:52:11.084Z,4.30
2022-10-18T04:54:38.443Z,4.40
2022-10-18T04:57:07.131Z,3.70
2022-10-18T04:59:34.488Z,3.55
2022-10-18T05:04:29.180Z,3.65
2022-10-18T05:06:56.639Z,4.13
2022-10-18T05:09:24.786Z,4.15
2022-10-18T05:11:52.241Z,3.92
2022-10-18T05:14:21.029Z,4.37
2022-10-18T05:16:48.375Z,4.45
2022-10-18T05:19:15.719Z,4.68
2022-10-18T05:21:43.063Z,4.53
2022-10-18T05:24:12.100Z,4.80
2022-10-18T05:26:39.448Z,4.13
2022-10-18T05:29:07.199Z,4.47
2022-10-18T05:31:36.019Z,5.43
2022-10-18T05:34:03.371Z,4.25
2022-10-18T05:36:30.727Z,4.72
2022-10-18T05:39:01.005Z,3.30
2022-10-18T05:41:31.507Z,3.70
2022-10-18T05:43:58.842Z,3.50
2022-10-18T05:46:26.227Z,3.53
2022-10-18T05:48:54.907Z,3.50
2022-10-18T05:51:22.284Z,3.47
2022-10-18T05:53:49.742Z,3.60
2022-10-18T05:56:17.139Z,5.18
2022-10-18T05:58:44.499Z,3.55
2022-10-18T06:01:11.864Z,3.83
2022-10-18T06:03:39.360Z,4.03
2022-10-18T06:06:09.160Z,3.85
2022-10-18T06:08:37.142Z,4.30
2022-10-18T06:11:07.230Z,3.92
2022-10-18T06:13:34.623Z,3.88
2022-10-18T06:16:01.977Z,3.53
2022-10-18T06:18:29.739Z,4.28
2022-10-18T06:20:57.547Z,4.40
2022-10-18T06:23:26.431Z,4.35
2022-10-18T06:25:53.780Z,4.13
2022-10-18T06:28:21.588Z,3.90
2022-10-18T06:30:49.084Z,3.53
2022-10-18T06:33:16.418Z,4.10
2022-10-18T06:35:43.772Z,3.75
2022-10-18T06:38:11.136Z,3.90
2022-10-18T06:40:39.809Z,4.20
2022-10-18T06:43:19.993Z,3.97
2022-10-18T06:45:48.647Z,4.32
2022-10-18T06:48:16.223Z,4.35
2022-10-18T06:50:43.626Z,5.28
2022-10-18T06:53:10.980Z,4.13
2022-10-18T06:55:39.683Z,4.60
2022-10-18T06:58:07.008Z,5.05
2022-10-18T07:00:34.377Z,4.47
2022-10-18T07:03:01.737Z,4.53
2022-10-18T07:05:29.147Z,4.30
2022-10-18T07:07:56.740Z,4.35
2022-10-18T07:10:24.406Z,4.55
2022-10-18T07:12:59.231Z,4.13
2022-10-18T07:15:38.256Z,4.90
2022-10-18T07:18:05.639Z,6.20
2022-10-18T07:20:33.034Z,4.60
2022-10-18T07:23:00.403Z,4.60
2022-10-18T07:25:29.891Z,4.00
2022-10-18T07:27:59.384Z,3.97
2022-10-18T07:30:27.094Z,4.37
2022-10-18T07:32:54.447Z,4.00
2022-10-18T07:35:21.801Z,4.47
2022-10-18T07:37:49.143Z,4.57
2022-10-18T07:40:16.521Z,4.47
2022-10-18T07:42:43.891Z,4.30
2022-10-18T07:45:13.632Z,4.53
2022-10-18T07:47:41.436Z,5.25
2022-10-18T07:50:09.492Z,4.70
2022-10-18T07:52:36.851Z,5.28
2022-10-18T07:55:04.559Z,5.37
2022-10-18T07:57:32.187Z,5.00
2022-10-18T07:59:59.685Z,4.78
2022-10-18T08:02:28.408Z,4.90
2022-10-18T08:04:55.740Z,5.43
2022-10-18T08:07:23.164Z,5.30
2022-10-18T08:09:50.520Z,5.15
2022-10-18T08:12:17.924Z,5.90
2022-10-18T08:14:45.296Z,6.00
2022-10-18T08:17:12.610Z,5.70
2022-10-18T08:19:52.714Z,5.33
2022-10-18T08:22:28.711Z,4.68
2022-10-18T08:24:56.076Z,4.90
2022-10-18T08:27:25.477Z,5.00
2022-10-18T08:29:52.888Z,4.63
2022-10-18T08:32:20.385Z,4.17
2022-10-18T08:34:50.694Z,4.03
2022-10-18T08:37:18.076Z,4.13
2022-10-18T08:39:45.433Z,4.63
2022-10-18T08:42:34.847Z,4.53
2022-10-18T08:45:12.636Z,4.10
2022-10-18T08:47:46.320Z,3.60
2022-10-18T08:50:17.318Z,3.70
2022-10-18T08:52:46.476Z,3.65
2022-10-18T08:55:18.083Z,3.35
2022-10-18T08:57:45.933Z,3.30
2022-10-18T09:00:17.228Z,3.28
2022-10-18T09:02:51.789Z,3.45
2022-10-18T09:05:25.843Z,3.15
2022-10-18T09:08:09.412Z,3.15
2022-10-18T09:10:42.531Z,3.00
2022-10-18T09:13:18.474Z,2.00
2022-10-18T09:15:49.675Z,2.05
2022-10-18T09:18:23.861Z,2.13
2022-10-18T09:20:54.826Z,1.98
2022-10-18T09:23:23.016Z,1.80
2022-10-18T09:25:52.557Z,2.08
2022-10-18T09:28:25.072Z,1.90
2022-10-18T09:30:57.228Z,1.98
2022-10-18T09:33:35.825Z,1.70
2022-10-18T09:36:05.893Z,1.67
2022-10-18T09:38:43.562Z,1.65
2022-10-18T09:41:14.515Z,1.50
2022-10-18T09:43:47.430Z,1.50
2022-10-18T09:46:14.823Z,1.60
2022-10-18T09:48:46.012Z,1.37
2022-10-18T09:51:17.683Z,1.40
2022-10-18T09:53:52.224Z,1.30
2022-10-18T09:56:22.795Z,1.33
2022-10-18T09:58:51.432Z,1.20
2022-10-18T10:01:20.563Z,1.03
2022-10-18T10:03:48.343Z,0.95
2022-10-18T10:06:24.039Z,1.00
2022-10-18T10:08:55.527Z,1.05
2022-10-18T10:11:46.700Z,0.90
2022-10-18T10:16:45.578Z,1.00
2022-10-18T10:19:20.454Z,1.00
2022-10-18T10:21:51.012Z,1.00
2022-10-18T10:24:31.340Z,1.00
2022-10-18T10:27:06.712Z,0.80
2022-10-18T10:30:07.263Z,1.00
2022-10-18T10:32:45.793Z,1.23
2022-10-18T10:35:34.036Z,1.00
2022-10-18T10:38:23.057Z,1.00
2022-10-18T10:40:50.981Z,1.07
2022-10-18T10:43:36.491Z,0.85
2022-10-18T10:46:07.289Z,1.00
2022-10-18T10:48:40.110Z,0.73
2022-10-18T10:51:08.947Z,1.02
2022-10-18T10:53:39.500Z,0.73
2022-10-18T10:56:07.967Z,0.90
2022-10-18T10:58:36.884Z,0.90
2022-10-18T11:01:18.166Z,0.90
2022-10-18T11:03:47.269Z,1.15
2022-10-18T11:06:27.298Z,0.80
2022-10-18T11:08:57.403Z,0.75
2022-10-18T11:11:28.444Z,0.80
2022-10-18T11:14:13.798Z,1.10
2022-10-18T11:16:51.107Z,0.80
2022-10-18T11:19:28.476Z,0.90
2022-10-18T11:21:56.702Z,0.80
2022-10-18T11:24:25.794Z,0.80
2022-10-18T11:26:57.671Z,0.70
2022-10-18T11:29:30.818Z,0.85
2022-10-18T11:32:03.715Z,0.80
2022-10-18T11:34:43.834Z,0.60
2022-10-18T11:37:34.532Z,1.00
2022-10-18T11:40:09.354Z,0.70
2022-10-18T11:42:42.561Z,0.80
2022-10-18T11:45:17.929Z,1.20
2022-10-18T11:47:52.294Z,0.85
2022-10-18T11:50:26.542Z,0.90
2022-10-18T11:52:57.459Z,0.90
2022-10-18T11:55:33.307Z,0.80
2022-10-18T11:58:04.825Z,0.87
2022-10-18T12:00:41.479Z,0.90
2022-10-18T12:03:16.395Z,0.80
2022-10-18T12:05:45.153Z,0.70
2022-10-18T12:08:14.256Z,0.88
2022-10-18T12:10:59.990Z,0.70
2022-10-18T12:13:34.583Z,0.65
2022-10-18T12:16:03.622Z,0.73
2022-10-18T12:18:31.261Z,0.60
2022-10-18T12:20:59.868Z,0.75
2022-10-18T12:23:34.448Z,0.77
2022-10-18T12:26:04.000Z,0.88
2022-10-18T12:28:35.104Z,0.70
2022-10-18T12:31:07.603Z,0.70
2022-10-18T12:33:36.828Z,0.85
2022-10-18T12:36:12.574Z,1.00
2022-10-18T12:38:42.540Z,1.15
2022-10-18T12:41:17.659Z,0.90
2022-10-18T12:43:51.615Z,1.00
2022-10-18T12:46:19.009Z,0.85
2022-10-18T12:49:03.938Z,1.10
2022-10-18T12:51:31.385Z,0.90
2022-10-18T12:54:10.187Z,0.80
2022-10-18T12:56:42.093Z,0.63
2022-10-18T12:59:28.012Z,0.80
2022-10-18T13:02:20.628Z,1.10
2022-10-18T13:04:48.292Z,1.00
2022-10-18T13:07:21.479Z,1.17
2022-10-18T13:10:07.536Z,0.93
2022-10-18T13:12:52.884Z,0.80
2022-10-18T13:15:34.360Z,0.80
2022-10-18T13:18:04.951Z,0.77
2022-10-18T13:20:34.619Z,0.90
2022-10-18T13:23:07.725Z,0.70
2022-10-18T13:25:39.387Z,1.08
2022-10-18T13:28:21.205Z,0.70
2022-10-18T13:30:52.108Z,0.90
2022-10-18T13:33:27.576Z,0.70
2022-10-18T13:35:56.306Z,0.75
2022-10-18T13:38:42.310Z,0.70
2022-10-18T13:41:10.765Z,0.80
2022-10-18T13:43:55.946Z,0.90
2022-10-18T13:46:23.901Z,1.38
2022-10-18T13:48:52.119Z,0.90
2022-10-18T13:51:34.398Z,0.80
2022-10-18T13:54:04.705Z,1.23
2022-10-18T13:56:47.033Z,0.70
2022-10-18T13:59:26.817Z,0.88
2022-10-18T14:02:06.610Z,2.00
2022-10-18T14:04:39.372Z,0.80
2022-10-18T14:07:07.320Z,0.73
2022-10-18T14:09:54.971Z,0.70
2022-10-18T14:12:26.824Z,0.95
2022-10-18T14:14:58.847Z,0.90
2022-10-18T14:17:30.433Z,1.10
2022-10-18T14:20:00.791Z,0.70
2022-10-18T14:22:30.533Z,0.68
2022-10-18T14:24:58.936Z,0.60
2022-10-18T14:27:27.536Z,1.00
2022-10-18T14:30:10.665Z,1.00
2022-10-18T14:32:38.087Z,0.83
2022-10-18T14:35:32.985Z,0.77
2022-10-18T14:38:01.390Z,0.80
2022-10-18T14:40:30.261Z,0.88
2022-10-18T14:42:57.747Z,0.70
2022-10-18T14:45:26.526Z,0.90
2022-10-18T14:47:54.030Z,0.85
2022-10-18T14:50:22.136Z,1.02
2022-10-18T14:52:49.791Z,1.08
2022-10-18T14:55:19.334Z,0.98
2022-10-18T14:57:47.154Z,0.70
2022-10-18T15:00:21.232Z,0.80
2022-10-18T15:02:50.314Z,0.80
2022-10-18T15:05:20.541Z,0.93
2022-10-18T15:07:48.251Z,0.80
2022-10-18T15:10:17.074Z,0.83
2022-10-18T15:13:08.274Z,0.77
2022-10-18T15:15:33.705Z,0.82
2022-10-18T15:18:02.720Z,0.95
2022-10-18T15:20:31.496Z,0.90
2022-10-18T15:23:13.768Z,0.93
2022-10-18T15:25:41.218Z,0.82
2022-10-18T15:28:20.852Z,0.93
2022-10-18T15:30:48.260Z,0.98
2022-10-18T15:33:22.302Z,1.00
2022-10-18T15:35:49.966Z,1.00
2022-10-18T15:38:18.206Z,1.30
2022-10-18T15:40:45.580Z,1.52
2022-10-18T15:43:36.327Z,1.25
2022-10-18T15:46:06.566Z,1.10
2022-10-18T15:48:36.986Z,0.90
2022-10-18T15:51:05.355Z,0.98
2022-10-18T15:53:35.468Z,0.98
2022-10-18T15:56:04.283Z,1.10
2022-10-18T15:58:37.893Z,1.50
2022-10-18T16:01:06.022Z,1.60
2022-10-18T16:03:34.739Z,1.10
2022-10-18T16:06:06.314Z,1.30
2022-10-18T16:08:40.469Z,1.27
2022-10-18T16:11:08.268Z,1.00
2022-10-18T16:13:35.919Z,0.93
2022-10-18T16:16:03.271Z,1.17
2022-10-18T16:18:30.582Z,1.20
2022-10-18T16:20:57.918Z,1.10
2022-10-18T16:23:28.428Z,1.00
2022-10-18T16:25:56.161Z,0.97
2022-10-18T16:28:24.444Z,1.15
2022-10-18T16:30:56.600Z,1.05
2022-10-18T16:33:24.158Z,1.10
2022-10-18T16:35:51.597Z,1.30
2022-10-18T16:38:26.655Z,1.50
2022-10-18T16:40:56.602Z,1.40
2022-10-18T16:43:24.300Z,1.10
2022-10-18T16:45:53.064Z,1.48
2022-10-18T16:48:21.643Z,1.52
2022-10-18T16:50:49.802Z,1.33
2022-10-18T16:53:17.148Z,1.30
2022-10-18T16:55:44.992Z,1.45
2022-10-18T16:58:16.555Z,1.40
2022-10-18T17:00:44.783Z,1.58
2022-10-18T17:03:12.629Z,1.23
2022-10-18T17:05:40.098Z,1.80
2022-10-18T17:08:07.518Z,4.28
2022-10-18T17:10:34.919Z,2.72
2022-10-18T17:13:02.253Z,2.50
2022-10-18T17:15:32.891Z,2.87
2022-10-18T17:18:03.807Z,2.58
2022-10-18T17:20:31.184Z,2.70
2022-10-18T17:22:58.567Z,2.45
2022-10-18T17:25:25.941Z,1.98
2022-10-18T17:27:53.321Z,2.57
2022-10-18T17:30:20.771Z,1.70
2022-10-18T17:32:49.495Z,1.70
2022-10-18T17:35:17.187Z,1.98
2022-10-18T17:37:47.661Z,2.17
2022-10-18T17:40:15.037Z,2.13
2022-10-18T17:42:42.852Z,1.70
2022-10-18T17:45:10.690Z,1.75
2022-10-18T17:47:38.051Z,2.40
2022-10-18T17:50:07.047Z,2.22
2022-10-18T17:52:34.423Z,2.77
2022-10-18T17:55:01.916Z,2.53
2022-10-18T17:57:29.300Z,2.25
2022-10-18T17:59:58.570Z,2.45
2022-10-18T18:02:25.928Z,2.10
2022-10-18T18:04:54.705Z,2.30
2022-10-18T18:07:23.392Z,2.40
2022-10-18T18:09:50.732Z,2.35
2022-10-18T18:12:18.120Z,2.38
2022-10-18T18:14:45.566Z,2.88
2022-10-18T18:17:12.938Z,2.90
2022-10-18T18:19:40.334Z,2.77
2022-10-18T18:22:08.129Z,2.47
2022-10-18T18:24:36.850Z,2.63
2022-10-18T18:27:04.217Z,2.45
2022-10-18T18:29:31.608Z,2.65
2022-10-18T18:31:59.685Z,2.33
2022-10-18T18:34:27.042Z,2.40
2022-10-18T18:36:54.408Z,2.53
2022-10-18T18:39:22.897Z,3.03
2022-10-18T18:41:52.151Z,3.08
2022-10-18T18:44:20.300Z,2.63
2022-10-18T18:46:48.010Z,2.60
2022-10-18T18:49:15.508Z,2.60
2022-10-18T18:51:42.902Z,2.38
2022-10-18T18:54:12.199Z,2.70
2022-10-18T18:56:39.745Z,2.60
2022-10-18T18:59:08.935Z,3.00
2022-10-18T19:01:37.035Z,2.70
2022-10-18T19:04:05.422Z,2.42
2022-10-18T19:06:33.784Z,2.97
2022-10-18T19:09:04.140Z,3.20
2022-10-18T19:11:32.909Z,3.30
2022-10-18T19:14:00.295Z,3.28
2022-10-18T19:16:29.921Z,3.10
2022-10-18T19:18:58.738Z,3.30
2022-10-18T19:21:26.986Z,3.30
2022-10-18T19:23:56.006Z,3.50
2022-10-18T19:26:26.483Z,3.65
2022-10-18T19:28:54.010Z,3.80
2022-10-18T19:31:21.815Z,4.28
2022-10-18T19:33:59.393Z,3.80
2022-10-18T19:36:27.577Z,3.60
2022-10-18T19:38:55.002Z,3.55
2022-10-18T19:43:51.040Z,3.65
2022-10-18T19:46:18.465Z,3.63
2022-10-18T19:48:45.833Z,3.80
2022-10-18T19:51:19.391Z,4.10
2022-10-18T19:53:50.361Z,3.92
2022-10-18T19:56:19.224Z,4.60
2022-10-18T19:58:46.668Z,3.97
2022-10-18T20:01:14.422Z,3.90
2022-10-18T20:03:42.479Z,4.57
2022-10-18T20:06:10.012Z,4.25
2022-10-18T20:08:39.091Z,4.18
2022-10-18T20:11:07.874Z,4.77
2022-10-18T20:13:35.545Z,4.32
2022-10-18T20:16:03.727Z,4.32
2022-10-18T20:18:31.098Z,4.40
2022-10-18T20:20:58.444Z,4.97
2022-10-18T20:23:26.015Z,4.40
2022-10-18T20:25:58.776Z,4.55
2022-10-18T20:28:26.319Z,4.75
2022-10-18T20:31:01.072Z,4.97
2022-10-18T20:33:29.046Z,5.10
2022-10-18T20:35:56.501Z,4.83
2022-10-18T20:38:23.972Z,5.07
2022-10-18T20:40:51.333Z,5.40
2022-10-18T20:43:20.127Z,5.70
2022-10-18T20:45:47.507Z,5.38
2022-10-18T20:48:14.868Z,5.77
2022-10-18T20:50:43.081Z,5.43
2022-10-18T20:53:10.430Z,5.47
2022-10-18T20:55:38.955Z,5.15
2022-10-18T20:58:07.098Z,6.15
2022-10-18T21:00:35.990Z,5.40
2022-10-18T21:03:03.362Z,5.50
2022-10-18T21:05:31.027Z,5.40
2022-10-18T21:07:58.593Z,5.25
2022-10-18T21:10:26.395Z,5.10
2022-10-18T21:12:53.950Z,5.23
2022-10-18T21:15:21.266Z,5.45
2022-10-18T21:17:52.111Z,4.95
2022-10-18T21:20:19.575Z,6.03
2022-10-18T21:22:46.933Z,6.00
2022-10-18T21:25:14.381Z,5.97
2022-10-18T21:27:41.762Z,6.10
2022-10-18T21:30:09.651Z,6.28
2022-10-18T21:32:36.986Z,5.60
2022-10-18T21:35:06.262Z,5.53
2022-10-18T21:37:33.670Z,5.70
2022-10-18T21:40:01.422Z,5.72
2022-10-18T21:42:28.799Z,5.47
2022-10-18T21:44:56.159Z,6.07
2022-10-18T21:47:23.500Z,6.45
2022-10-18T21:49:50.835Z,6.47
2022-10-18T21:52:19.498Z,6.10
2022-10-18T21:54:46.822Z,6.82
2022-10-18T21:57:14.162Z,6.40
2022-10-18T21:59:41.492Z,6.55
2022-10-18T22:02:08.840Z,6.97
2022-10-18T22:04:36.514Z,6.43
2022-10-18T22:07:04.669Z,6.63
2022-10-18T22:09:33.418Z,6.40
2022-10-18T22:12:00.843Z,6.38
2022-10-18T22:14:28.232Z,6.17
2022-10-18T22:16:55.658Z,6.47
2022-10-18T22:19:23.034Z,6.43
2022-10-18T22:21:50.448Z,6.10
2022-10-18T22:24:18.123Z,6.22
2022-10-18T22:26:46.976Z,6.17
2022-10-18T22:29:15.601Z,6.40
2022-10-18T22:31:43.956Z,5.95
2022-10-18T22:34:12.391Z,5.65
2022-10-18T22:36:39.853Z,6.13
2022-10-18T22:39:07.738Z,6.20
2022-10-18T22:41:35.574Z,6.22
2022-10-18T22:44:04.667Z,6.95
2022-10-18T22:46:32.573Z,6.45
2022-10-18T22:48:59.924Z,6.55
2022-10-18T22:51:27.532Z,6.60
2022-10-18T22:53:54.934Z,6.65
2022-10-18T22:56:22.851Z,6.97
2022-10-18T22:58:50.484Z,5.82
2022-10-18T23:01:20.220Z,6.25
2022-10-18T23:03:47.738Z,6.30
2022-10-18T23:06:19.287Z,6.18
2022-10-18T23:08:46.630Z,6.20
2022-10-18T23:11:14.072Z,6.75
2022-10-18T23:13:41.462Z,6.30
2022-10-18T23:16:09.266Z,6.77
2022-10-18T23:21:06.279Z,6.55
2022-10-18T23:23:35.389Z,6.88
2022-10-18T23:26:03.481Z,7.07
2022-10-18T23:28:31.004Z,6.70
2022-10-18T23:30:58.389Z,7.10
2022-10-18T23:33:26.129Z,6.75
2022-10-18T23:35:54.819Z,7.15
2022-10-18T23:38:22.188Z,6.72
2022-10-18T23:40:49.562Z,6.67
2022-10-18T23:43:16.964Z,7.10
2022-10-18T23:48:17.533Z,6.95
2022-10-18T23:50:44.902Z,6.13
2022-10-18T23:53:13.610Z,6.40
2022-10-18T23:55:40.997Z,6.90
2022-10-18T23:58:08.482Z,6.10
